Time;durP1;ratioP1;P1;durP2;ratioP2;P2;SDS_P1;SDS_P2;PMS_P1;PMS_P2;Temp;Humidity;BMP_temperature;BMP_pressure;BME280_temperature;BME280_humidity;BME280_pressure;Samples;Min_cycle;Max_cycle;Signal;HPM_P1;HPM_P2
2021/12/10 00:00:00;;;;;;;34.70;19.35;;;4.70;99.90;;;;;;4816814;29;20043;-78
2021/12/10 00:02:34;;;;;;;27.40;17.15;;;4.70;99.90;;;;;;4815506;29;20046;-78
2021/12/10 00:05:00;;;;;;;29.08;18.20;;;4.60;99.90;;;;;;4817182;29;20128;-78
2021/12/10 00:07:27;;;;;;;28.35;17.70;;;4.60;99.90;;;;;;4815823;29;20129;-78
2021/12/10 00:09:58;;;;;;;28.77;18.02;;;4.60;99.90;;;;;;4815817;29;20049;-78
2021/12/10 00:12:49;;;;;;;33.55;18.40;;;4.70;99.90;;;;;;4817267;29;20112;-78
2021/12/10 00:15:23;;;;;;;29.95;18.38;;;4.60;99.90;;;;;;4816946;29;20068;-78
2021/12/10 00:17:50;;;;;;;27.30;17.23;;;4.60;99.90;;;;;;4815805;29;20054;-77
2021/12/10 00:20:19;;;;;;;30.90;18.48;;;4.70;99.90;;;;;;4800724;29;20077;-78
2021/12/10 00:22:54;;;;;;;28.13;17.33;;;4.60;99.90;;;;;;4831884;29;20118;-78
2021/12/10 00:25:36;;;;;;;26.73;17.27;;;4.60;99.90;;;;;;4816584;29;20043;-78
2021/12/10 00:28:14;;;;;;;29.08;18.70;;;4.60;99.90;;;;;;4816886;29;20050;-78
2021/12/10 00:30:57;;;;;;;25.13;17.75;;;4.70;99.90;;;;;;4815592;29;20057;-78
2021/12/10 00:33:25;;;;;;;24.67;16.63;;;4.70;99.90;;;;;;4816476;29;20049;-79
2021/12/10 00:35:53;;;;;;;25.23;16.02;;;4.70;99.90;;;;;;4800775;29;20042;-79
2021/12/10 00:38:20;;;;;;;27.75;16.45;;;4.70;99.90;;;;;;4815732;29;20097;-79
2021/12/10 00:40:46;;;;;;;31.95;16.55;;;4.70;99.90;;;;;;4815533;29;20054;-79
2021/12/10 00:43:12;;;;;;;23.95;15.68;;;4.70;99.90;;;;;;4815009;29;20058;-79
2021/12/10 00:45:38;;;;;;;25.10;15.35;;;4.70;99.90;;;;;;4800495;29;20047;-78
2021/12/10 00:48:04;;;;;;;28.85;15.98;;;4.70;99.90;;;;;;4815451;29;20096;-78
2021/12/10 00:50:32;;;;;;;;;;;4.70;99.90;;;;;;4815328;29;20511;-79
2021/12/10 00:52:58;;;;;;;21.60;13.80;;;4.70;99.90;;;;;;4815363;29;19933;-79
2021/12/10 00:55:25;;;;;;;24.80;14.68;;;4.70;99.90;;;;;;4815656;29;20038;-79
2021/12/10 00:57:52;;;;;;;30.52;15.45;;;4.70;99.90;;;;;;4817092;29;20069;-77
2021/12/10 01:00:22;;;;;;;26.42;15.20;;;4.70;99.90;;;;;;4814819;29;20118;-78
2021/12/10 01:02:49;;;;;;;24.83;13.93;;;4.70;99.90;;;;;;4814191;29;20091;-78
2021/12/10 01:05:16;;;;;;;23.45;15.50;;;4.70;99.90;;;;;;4815538;29;21308;-78
2021/12/10 01:07:43;;;;;;;23.65;14.68;;;4.70;99.90;;;;;;4801505;29;20058;-78
2021/12/10 01:10:16;;;;;;;26.70;15.15;;;4.80;99.90;;;;;;4799744;29;20050;-78
2021/12/10 01:12:47;;;;;;;27.70;15.73;;;4.80;99.90;;;;;;4815022;29;20055;-78
2021/12/10 01:23:50;;;;;;;22.60;13.73;;;4.80;99.90;;;;;;4819667;29;20058;-78
2021/12/10 01:26:41;;;;;;;23.13;13.68;;;4.70;99.90;;;;;;4819162;29;20112;-78
2021/12/10 01:29:08;;;;;;;29.40;14.85;;;4.70;99.90;;;;;;4819431;29;20053;-79
2021/12/10 01:31:36;;;;;;;19.88;13.27;;;4.80;99.90;;;;;;4816760;29;20058;-78
2021/12/10 01:34:03;;;;;;;25.88;14.18;;;4.80;99.90;;;;;;4815507;29;20046;-78
2021/12/10 01:36:29;;;;;;;22.70;13.63;;;4.80;99.90;;;;;;4819247;29;20046;-78
2021/12/10 01:38:55;;;;;;;19.65;12.38;;;4.80;99.90;;;;;;4817240;29;20826;-79
2021/12/10 01:41:25;;;;;;;22.80;14.80;;;4.80;99.90;;;;;;4817573;29;20050;-78
2021/12/10 01:43:53;;;;;;;23.88;14.45;;;4.80;99.90;;;;;;4817038;29;20050;-78
2021/12/10 01:46:27;;;;;;;20.55;13.38;;;4.80;99.90;;;;;;4816816;29;20058;-78
2021/12/10 01:49:00;;;;;;;29.77;14.30;;;4.80;99.90;;;;;;4818329;29;20053;-78
2021/12/10 01:51:30;;;;;;;23.95;12.95;;;4.80;99.90;;;;;;4818047;29;20135;-78
2021/12/10 01:54:02;;;;;;;20.25;12.63;;;4.80;99.90;;;;;;4816081;29;20055;-78
2021/12/10 01:56:31;;;;;;;24.70;13.40;;;4.80;99.90;;;;;;4818075;29;20046;-79
2021/12/10 01:58:58;;;;;;;23.13;13.05;;;4.80;99.90;;;;;;4818317;29;20061;-79
2021/12/10 02:01:31;;;;;;;23.50;11.43;;;4.70;99.90;;;;;;4815382;29;20465;-79
2021/12/10 02:03:59;;;;;;;21.75;9.98;;;4.80;99.90;;;;;;4816991;29;20195;-79
2021/12/10 02:06:25;;;;;;;17.33;10.02;;;4.80;99.90;;;;;;4817240;29;20042;-79
2021/12/10 02:08:51;;;;;;;19.50;9.52;;;4.70;99.90;;;;;;4816658;29;20113;-78
2021/12/10 02:11:18;;;;;;;18.70;10.45;;;4.70;99.90;;;;;;4817771;29;20050;-79
2021/12/10 02:13:45;;;;;;;15.95;8.75;;;4.70;99.90;;;;;;4818851;29;20042;-79
2021/12/10 02:16:11;;;;;;;16.05;8.50;;;4.70;99.90;;;;;;4818738;29;20567;-79
2021/12/10 02:18:37;;;;;;;13.77;8.50;;;4.60;99.90;;;;;;4817943;29;20049;-79
2021/12/10 02:21:03;;;;;;;11.02;7.82;;;4.70;99.90;;;;;;4803362;29;20049;-79
2021/12/10 02:23:32;;;;;;;21.00;10.35;;;4.70;99.90;;;;;;4816823;29;20059;-79
2021/12/10 02:26:01;;;;;;;18.55;10.45;;;4.60;99.90;;;;;;4817142;29;20061;-79
2021/12/10 02:28:28;;;;;;;17.45;10.95;;;4.60;99.90;;;;;;4800046;29;20051;-79
2021/12/10 02:30:54;;;;;;;17.00;9.63;;;4.60;99.90;;;;;;4802492;29;20050;-79
2021/12/10 02:33:20;;;;;;;13.88;9.55;;;4.60;99.90;;;;;;4814657;29;20073;-79
2021/12/10 02:35:46;;;;;;;17.40;10.75;;;4.60;99.90;;;;;;4801901;29;20098;-79
2021/12/10 02:38:16;;;;;;;17.58;10.98;;;4.60;99.90;;;;;;4787187;29;20039;-79
2021/12/10 02:40:43;;;;;;;18.05;10.18;;;4.60;99.90;;;;;;4818722;29;20052;-79
2021/12/10 02:43:11;;;;;;;19.58;11.25;;;4.60;99.90;;;;;;4801024;29;20058;-79
2021/12/10 02:45:38;;;;;;;20.08;10.43;;;4.60;99.90;;;;;;4818381;29;20061;-79
2021/12/10 02:48:05;;;;;;;20.25;9.80;;;4.60;99.90;;;;;;4818796;29;20050;-81
2021/12/10 02:50:33;;;;;;;17.63;9.50;;;4.60;99.90;;;;;;4817768;29;20050;-81
2021/12/10 02:53:00;;;;;;;11.82;8.07;;;4.60;99.90;;;;;;4818823;29;20042;-81
2021/12/10 02:55:27;;;;;;;14.35;9.05;;;4.50;99.90;;;;;;4802468;29;20935;-81
2021/12/10 02:57:57;;;;;;;21.00;10.32;;;4.50;99.90;;;;;;4818158;29;20078;-81
2021/12/10 03:00:37;;;;;;;18.55;9.95;;;4.60;99.90;;;;;;4802313;29;20050;-81
2021/12/10 03:03:03;;;;;;;19.42;10.25;;;4.50;99.90;;;;;;4803040;29;20121;-81
2021/12/10 03:05:29;;;;;;;15.68;9.48;;;4.50;99.90;;;;;;4817349;29;20129;-81
2021/12/10 03:07:55;;;;;;;17.08;10.15;;;4.50;99.90;;;;;;4803145;29;20042;-81
2021/12/10 03:10:26;;;;;;;15.85;9.43;;;4.50;99.90;;;;;;4818040;29;20795;-81
2021/12/10 03:12:52;;;;;;;13.68;9.05;;;4.50;99.90;;;;;;4817748;29;20398;-82
2021/12/10 03:15:21;;;;;;;21.00;10.00;;;4.50;99.90;;;;;;4818656;29;20146;-81
2021/12/10 03:17:48;;;;;;;21.98;10.98;;;4.50;99.90;;;;;;4817913;29;20087;-81
2021/12/10 03:20:16;;;;;;;21.75;10.32;;;4.50;99.90;;;;;;4803525;29;20043;-81
2021/12/10 03:22:43;;;;;;;16.73;10.15;;;4.50;99.90;;;;;;4803946;29;20493;-81
2021/12/10 03:25:11;;;;;;;;;;;4.50;99.90;;;;;;4803771;29;20518;-81
2021/12/10 03:27:37;;;;;;;17.83;10.90;;;4.50;99.90;;;;;;4803989;29;19945;-80
2021/12/10 03:30:09;;;;;;;19.20;10.77;;;4.50;99.90;;;;;;4787913;29;20117;-81
2021/12/10 03:32:36;;;;;;;24.45;11.98;;;4.50;99.90;;;;;;4804092;29;20057;-81
2021/12/10 03:35:09;;;;;;;19.50;10.75;;;4.50;99.90;;;;;;4802433;29;20073;-81
2021/12/10 03:37:36;;;;;;;14.95;9.50;;;4.50;99.90;;;;;;4804249;29;20073;-81
2021/12/10 03:40:07;;;;;;;20.17;10.70;;;4.50;99.90;;;;;;4803035;29;20120;-81
2021/12/10 03:42:33;;;;;;;18.60;10.43;;;4.40;99.90;;;;;;4818299;29;20106;-81
2021/12/10 03:44:59;;;;;;;18.40;10.32;;;4.50;99.90;;;;;;4819316;29;20054;-81
2021/12/10 03:47:25;;;;;;;15.00;10.10;;;4.40;99.90;;;;;;4815160;29;20489;-81
2021/12/10 03:49:50;;;;;;;18.17;10.60;;;4.40;99.90;;;;;;4817678;29;20050;-81
2021/12/10 03:52:17;;;;;;;20.08;11.27;;;4.50;99.90;;;;;;4801911;29;20039;-81
2021/12/10 03:54:43;;;;;;;19.38;10.00;;;4.40;99.90;;;;;;4815608;29;20082;-81
2021/12/10 03:57:10;;;;;;;23.35;11.27;;;4.40;99.90;;;;;;4817625;29;20050;-82
2021/12/10 03:59:37;;;;;;;18.75;10.43;;;4.40;99.90;;;;;;4801978;29;20046;-81
2021/12/10 04:02:06;;;;;;;18.05;10.63;;;4.40;99.90;;;;;;4818091;29;20178;-81
2021/12/10 04:04:42;;;;;;;19.75;9.52;;;4.40;99.90;;;;;;4833451;29;20066;-81
2021/12/10 04:07:18;;;;;;;25.75;11.52;;;4.40;99.90;;;;;;4819025;29;20034;-81
2021/12/10 04:09:44;;;;;;;20.42;10.35;;;4.40;99.90;;;;;;4802185;29;20101;-81
2021/12/10 04:12:10;;;;;;;21.88;11.07;;;4.40;99.90;;;;;;4802661;29;20054;-81
2021/12/10 04:14:37;;;;;;;19.98;11.25;;;4.40;99.90;;;;;;4818317;29;20069;-81
2021/12/10 04:17:04;;;;;;;17.58;11.05;;;4.40;99.90;;;;;;4818316;29;20083;-81
2021/12/10 04:19:32;;;;;;;20.77;11.18;;;4.40;99.90;;;;;;4818013;29;20047;-81
2021/12/10 04:22:00;;;;;;;18.85;11.80;;;4.40;99.90;;;;;;4788483;29;20485;-81
2021/12/10 04:24:31;;;;;;;22.25;12.15;;;4.40;99.90;;;;;;4801657;29;20054;-81
2021/12/10 04:26:58;;;;;;;21.00;12.07;;;4.40;99.90;;;;;;4817275;29;20115;-81
2021/12/10 04:29:24;;;;;;;19.83;11.55;;;4.40;99.90;;;;;;4803725;29;20042;-82
2021/12/10 04:31:53;;;;;;;20.90;12.55;;;4.30;99.90;;;;;;4802339;29;20511;-81
2021/12/10 04:34:20;;;;;;;23.77;14.05;;;4.30;99.90;;;;;;4802435;29;20051;-81
2021/12/10 04:36:46;;;;;;;22.60;14.95;;;4.40;99.90;;;;;;4818355;29;20150;-81
2021/12/10 04:39:12;;;;;;;24.50;16.17;;;4.30;99.90;;;;;;4816833;29;20046;-81
2021/12/10 04:41:38;;;;;;;22.30;14.18;;;4.30;99.90;;;;;;4816731;29;20048;-81
2021/12/10 04:44:04;;;;;;;21.52;14.40;;;4.30;99.90;;;;;;4803613;29;20125;-81
2021/12/10 04:46:31;;;;;;;23.60;14.02;;;4.20;99.90;;;;;;4802547;29;20054;-81
2021/12/10 04:49:00;;;;;;;18.92;14.57;;;4.20;99.90;;;;;;4803091;29;20042;-81
2021/12/10 04:51:30;;;;;;;20.33;14.27;;;4.10;99.90;;;;;;4801966;29;20116;-81
2021/12/10 04:53:57;;;;;;;21.98;14.88;;;4.10;99.90;;;;;;4804261;29;20034;-81
2021/12/10 04:56:24;;;;;;;21.15;14.23;;;4.10;99.90;;;;;;4820839;29;20047;-81
2021/12/10 04:58:51;;;;;;;18.98;12.27;;;4.00;99.90;;;;;;4805251;29;20147;-81
2021/12/10 05:01:17;;;;;;;20.73;13.32;;;3.90;99.90;;;;;;4804659;29;20069;-81
2021/12/10 05:03:42;;;;;;;19.48;13.13;;;3.80;99.90;;;;;;4819393;29;20146;-81
2021/12/10 05:06:08;;;;;;;23.85;15.20;;;3.80;99.90;;;;;;4819427;29;20110;-81
2021/12/10 05:08:36;;;;;;;21.30;13.98;;;3.70;99.90;;;;;;4819139;29;20070;-81
2021/12/10 05:11:05;;;;;;;21.85;14.35;;;3.70;99.90;;;;;;4804836;29;20043;-81
2021/12/10 05:13:31;;;;;;;23.73;14.38;;;3.60;99.90;;;;;;4818631;29;20107;-81
2021/12/10 05:15:58;;;;;;;23.73;14.25;;;3.60;99.90;;;;;;4804274;29;20054;-81
2021/12/10 05:18:29;;;;;;;17.52;12.68;;;3.50;99.90;;;;;;4820555;29;20099;-81
2021/12/10 05:20:56;;;;;;;18.05;11.57;;;3.50;99.90;;;;;;4819066;29;20054;-80
2021/12/10 05:23:22;;;;;;;18.67;12.30;;;3.40;99.90;;;;;;4820553;29;20085;-80
2021/12/10 05:25:49;;;;;;;18.25;13.75;;;3.40;99.90;;;;;;4805194;29;20050;-80
2021/12/10 05:28:15;;;;;;;18.45;12.00;;;3.40;99.90;;;;;;4819867;29;20042;-80
2021/12/10 05:30:42;;;;;;;19.13;12.65;;;3.30;99.90;;;;;;4804156;29;20046;-80
2021/12/10 05:33:14;;;;;;;21.00;13.38;;;3.30;99.90;;;;;;4818329;29;20470;-81
2021/12/10 05:35:40;;;;;;;20.73;12.60;;;3.30;99.90;;;;;;4820267;29;20048;-80
2021/12/10 05:38:06;;;;;;;17.08;12.02;;;3.30;99.90;;;;;;4820987;29;20118;-80
2021/12/10 05:40:32;;;;;;;20.40;12.77;;;3.30;99.90;;;;;;4819628;29;20046;-80
2021/12/10 05:42:57;;;;;;;20.70;12.65;;;3.30;99.90;;;;;;4818831;29;20042;-86
2021/12/10 05:45:24;;;;;;;18.05;12.15;;;3.30;99.90;;;;;;4818290;29;20080;-86
2021/12/10 05:47:50;;;;;;;;;;;3.30;99.90;;;;;;4821730;29;20053;-86
2021/12/10 05:50:23;;;;;;;20.88;14.30;;;3.20;99.90;;;;;;4818529;29;19929;-85
2021/12/10 05:52:49;;;;;;;21.67;13.55;;;3.20;99.90;;;;;;4820524;29;20514;-84
2021/12/10 05:55:15;;;;;;;17.70;12.73;;;3.20;99.90;;;;;;4818925;29;20057;-85
2021/12/10 05:57:41;;;;;;;22.65;14.07;;;3.20;99.90;;;;;;4818015;29;20039;-85
2021/12/10 06:00:11;;;;;;;18.38;13.55;;;3.20;99.90;;;;;;4818161;29;20556;-85
2021/12/10 06:02:37;;;;;;;20.70;13.68;;;3.20;99.90;;;;;;4804256;29;20114;-85
2021/12/10 06:05:04;;;;;;;22.92;14.68;;;3.10;99.90;;;;;;4806700;29;20038;-86
2021/12/10 06:07:30;;;;;;;25.90;15.32;;;3.10;99.90;;;;;;4805575;29;20053;-85
2021/12/10 06:09:55;;;;;;;22.55;16.15;;;3.10;99.90;;;;;;4820348;29;20042;-86
2021/12/10 06:12:21;;;;;;;21.33;14.65;;;3.10;99.90;;;;;;4819712;29;20043;-85
2021/12/10 06:14:47;;;;;;;22.30;15.88;;;3.10;99.90;;;;;;4802944;29;20141;-85
2021/12/10 06:17:13;;;;;;;24.80;16.23;;;3.10;99.90;;;;;;4822357;29;20065;-84
2021/12/10 06:19:38;;;;;;;21.80;14.65;;;3.10;99.90;;;;;;4822393;29;20046;-84
2021/12/10 06:22:04;;;;;;;21.90;14.45;;;3.20;99.90;;;;;;4821062;29;20042;-84
2021/12/10 06:24:30;;;;;;;24.25;15.30;;;3.20;99.90;;;;;;4819419;29;20052;-86
2021/12/10 06:26:56;;;;;;;23.60;15.85;;;3.10;99.90;;;;;;4820393;29;20054;-86
2021/12/10 06:29:24;;;;;;;19.83;13.95;;;3.10;99.90;;;;;;4821693;29;20041;-86
2021/12/10 06:31:50;;;;;;;22.83;15.10;;;3.10;99.90;;;;;;4808432;29;20046;-85
2021/12/10 06:34:16;;;;;;;24.15;16.55;;;3.10;99.90;;;;;;4817837;29;20044;-86
2021/12/10 06:36:42;;;;;;;20.30;14.02;;;3.00;99.90;;;;;;4821466;29;20420;-86
2021/12/10 06:39:08;;;;;;;21.58;14.93;;;3.00;99.90;;;;;;4817836;29;20050;-86
2021/12/10 06:41:35;;;;;;;24.65;15.20;;;3.00;99.90;;;;;;4818553;29;20039;-86
2021/12/10 06:44:04;;;;;;;21.90;15.38;;;2.90;99.90;;;;;;4824692;29;20072;-86
2021/12/10 06:46:34;;;;;;;20.10;15.35;;;3.00;99.90;;;;;;4805821;29;20047;-86
2021/12/10 06:49:00;;;;;;;20.08;14.95;;;3.00;99.90;;;;;;4807824;29;20049;-87
2021/12/10 06:51:26;;;;;;;21.73;14.90;;;3.00;99.90;;;;;;4821214;29;20059;-87
2021/12/10 06:53:52;;;;;;;21.17;14.45;;;3.00;99.90;;;;;;4808121;29;20078;-84
2021/12/10 06:56:19;;;;;;;20.55;14.43;;;3.00;99.90;;;;;;4821138;29;20089;-81
2021/12/10 06:58:45;;;;;;;19.58;13.50;;;3.00;99.90;;;;;;4820386;29;20064;-83
2021/12/10 07:01:22;;;;;;;18.25;13.73;;;3.10;99.90;;;;;;4821538;29;20070;-82
2021/12/10 07:03:50;;;;;;;21.63;14.15;;;3.10;99.90;;;;;;4809217;29;20456;-82
2021/12/10 07:06:17;;;;;;;19.67;13.13;;;3.10;99.90;;;;;;4821097;29;20153;-82
2021/12/10 07:08:44;;;;;;;18.80;12.73;;;3.00;99.90;;;;;;4824113;29;20049;-83
2021/12/10 07:11:14;;;;;;;16.48;12.52;;;3.00;99.90;;;;;;4807726;29;20141;-83
2021/12/10 07:13:41;;;;;;;19.70;12.60;;;3.00;99.90;;;;;;4819158;29;20039;-83
2021/12/10 07:16:07;;;;;;;14.27;11.23;;;3.00;99.90;;;;;;4801772;29;20058;-83
2021/12/10 07:18:33;;;;;;;16.88;10.93;;;3.00;99.90;;;;;;4821415;29;20386;-83
2021/12/10 07:21:00;;;;;;;15.10;11.32;;;2.90;99.90;;;;;;4818079;29;20054;-85
2021/12/10 07:23:26;;;;;;;17.13;11.10;;;2.80;99.90;;;;;;4819735;29;20089;-85
2021/12/10 07:25:52;;;;;;;18.00;12.20;;;2.80;99.90;;;;;;4817492;29;20093;-83
2021/12/10 07:28:18;;;;;;;16.35;11.35;;;2.70;99.90;;;;;;4818272;29;20062;-84
2021/12/10 07:30:44;;;;;;;17.65;11.48;;;2.70;99.90;;;;;;4818139;29;20057;-85
2021/12/10 07:33:10;;;;;;;16.45;11.75;;;2.70;99.90;;;;;;4834056;29;20868;-82
2021/12/10 07:35:37;;;;;;;16.90;12.18;;;2.70;99.90;;;;;;4818309;29;20080;-84
2021/12/10 07:38:05;;;;;;;17.15;10.93;;;2.60;99.90;;;;;;4801172;29;20038;-84
2021/12/10 07:40:33;;;;;;;13.70;10.70;;;2.60;99.90;;;;;;4815433;29;20049;-84
2021/12/10 07:42:59;;;;;;;17.85;11.68;;;2.50;99.90;;;;;;4801214;29;20057;-84
2021/12/10 07:45:26;;;;;;;17.00;12.18;;;2.50;99.90;;;;;;4819376;29;20043;-84
2021/12/10 07:47:53;;;;;;;16.20;12.05;;;2.50;99.90;;;;;;4788421;29;20099;-84
2021/12/10 07:50:24;;;;;;;17.60;11.65;;;2.40;99.90;;;;;;4817258;29;20111;-82
2021/12/10 07:52:55;;;;;;;19.08;11.23;;;2.40;99.90;;;;;;4836018;29;20048;-83
2021/12/10 07:55:24;;;;;;;13.98;9.93;;;2.30;99.90;;;;;;4803936;29;20138;-83
2021/12/10 07:57:51;;;;;;;15.35;11.30;;;2.30;99.90;;;;;;4819321;29;20044;-83
2021/12/10 08:00:18;;;;;;;17.88;11.15;;;2.30;99.90;;;;;;4806541;29;20064;-83
2021/12/10 08:02:45;;;;;;;15.35;11.00;;;2.30;99.90;;;;;;4821334;29;20125;-82
2021/12/10 08:05:11;;;;;;;;;;;2.30;99.90;;;;;;4817585;29;20042;-82
2021/12/10 08:07:37;;;;;;;14.73;10.20;;;2.20;99.90;;;;;;4816204;29;19976;-83
2021/12/10 08:10:05;;;;;;;18.52;10.77;;;2.30;99.90;;;;;;4834646;29;20038;-83
2021/12/10 08:12:31;;;;;;;16.80;10.63;;;2.20;99.90;;;;;;4816725;29;20133;-82
2021/12/10 08:14:57;;;;;;;15.40;10.55;;;2.30;99.90;;;;;;4817252;29;20107;-82
2021/12/10 08:17:26;;;;;;;14.02;8.88;;;2.40;99.90;;;;;;4803449;29;20038;-82
2021/12/10 08:19:52;;;;;;;17.00;8.30;;;2.30;99.90;;;;;;4817996;29;20049;-83
2021/12/10 08:22:18;;;;;;;15.75;10.05;;;2.30;99.90;;;;;;4817102;29;20122;-83
2021/12/10 08:24:45;;;;;;;13.93;9.32;;;2.30;99.90;;;;;;4817974;29;20088;-83
2021/12/10 08:27:12;;;;;;;13.57;9.05;;;2.30;99.90;;;;;;4816194;29;20054;-83
2021/12/10 08:29:40;;;;;;;16.13;9.63;;;2.30;99.90;;;;;;4819546;29;20042;-83
2021/12/10 08:32:06;;;;;;;13.70;9.60;;;2.30;99.90;;;;;;4815693;29;20117;-82
2021/12/10 08:34:32;;;;;;;15.75;9.88;;;2.30;99.90;;;;;;4817415;29;20159;-80
2021/12/10 08:36:57;;;;;;;13.70;9.43;;;2.40;99.90;;;;;;4820010;29;20050;-81
2021/12/10 08:39:23;;;;;;;15.10;10.07;;;2.40;99.90;;;;;;4818912;29;20116;-82
2021/12/10 08:41:49;;;;;;;14.27;8.73;;;2.50;99.90;;;;;;4817585;29;20079;-82
2021/12/10 08:44:16;;;;;;;11.90;8.63;;;2.50;99.90;;;;;;4814854;29;20389;-81
2021/12/10 08:46:44;;;;;;;18.65;9.18;;;2.50;99.90;;;;;;4816913;29;20046;-83
2021/12/10 08:49:10;;;;;;;12.20;8.05;;;2.50;99.90;;;;;;4815954;29;20489;-82
2021/12/10 08:51:38;;;;;;;;;;;2.60;99.90;;;;;;4817655;29;20081;-82
2021/12/10 08:54:04;;;;;;;11.77;8.13;;;2.50;99.90;;;;;;4817338;29;19969;-83
2021/12/10 08:56:30;;;;;;;12.48;8.05;;;2.60;99.90;;;;;;4816702;29;21186;-83
2021/12/10 08:58:57;;;;;;;13.77;8.32;;;2.70;99.90;;;;;;4818688;29;20046;-85
2021/12/10 09:01:28;;;;;;;11.88;8.50;;;2.60;99.90;;;;;;4816605;29;20057;-85
2021/12/10 09:03:57;;;;;;;11.30;8.27;;;2.70;99.90;;;;;;4817731;29;20043;-82
2021/12/10 09:06:27;;;;;;;12.68;7.32;;;2.70;99.90;;;;;;4803423;29;20428;-82
2021/12/10 09:08:54;;;;;;;10.55;7.40;;;2.80;99.90;;;;;;4818059;29;20054;-83
2021/12/10 09:11:20;;;;;;;11.63;7.65;;;2.80;99.90;;;;;;4835524;29;20515;-83
2021/12/10 09:13:46;;;;;;;11.07;7.25;;;2.80;99.90;;;;;;4816690;29;20046;-82
2021/12/10 09:16:21;;;;;;;11.70;7.43;;;2.80;99.90;;;;;;4802616;29;20058;-83
2021/12/10 09:18:47;;;;;;;10.48;6.80;;;2.90;99.90;;;;;;4821179;29;20072;-82
2021/12/10 09:21:13;;;;;;;;;;;2.90;99.90;;;;;;4803798;29;20187;-82
2021/12/10 09:23:39;;;;;;;10.25;7.40;;;2.90;99.90;;;;;;4800860;29;19925;-82
2021/12/10 09:26:10;;;;;;;9.90;6.90;;;3.00;99.90;;;;;;4817034;29;20131;-82
2021/12/10 09:28:40;;;;;;;11.13;7.03;;;3.00;99.90;;;;;;4803446;29;20041;-83
2021/12/10 09:31:06;;;;;;;12.27;7.45;;;3.10;99.90;;;;;;4816230;29;20050;-83
2021/12/10 09:33:32;;;;;;;11.43;7.28;;;3.10;99.90;;;;;;4816877;29;20535;-83
2021/12/10 09:35:58;;;;;;;;;;;3.20;99.90;;;;;;4816940;29;20046;-83
2021/12/10 09:38:24;;;;;;;9.75;6.97;;;3.20;99.90;;;;;;4817133;29;19920;-82
2021/12/10 09:40:55;;;;;;;10.52;6.85;;;3.30;99.90;;;;;;4821876;29;20793;-84
2021/12/10 09:43:21;;;;;;;9.70;6.50;;;3.30;99.90;;;;;;4801434;29;20046;-84
2021/12/10 09:45:48;;;;;;;12.60;6.75;;;3.40;99.90;;;;;;4802829;29;20052;-83
2021/12/10 09:48:15;;;;;;;;;;;3.40;99.90;;;;;;4805546;29;20409;-84
2021/12/10 09:50:57;;;;;;;11.60;6.85;;;3.50;99.90;;;;;;4819625;29;19920;-84
2021/12/10 09:53:25;;;;;;;10.38;7.03;;;3.50;99.90;;;;;;4836831;29;20102;-83
2021/12/10 09:55:51;;;;;;;10.95;7.07;;;3.50;99.90;;;;;;4836369;29;20086;-83
2021/12/10 09:58:17;;;;;;;;;;;3.60;99.90;;;;;;4817884;29;20074;-84
2021/12/10 10:00:52;;;;;;;9.90;7.00;;;3.60;99.90;;;;;;4803962;29;19967;-84
2021/12/10 10:03:21;;;;;;;9.63;6.88;;;3.60;99.90;;;;;;4803378;29;20086;-83
2021/12/10 10:05:47;;;;;;;10.77;6.75;;;3.60;99.90;;;;;;4818546;29;20046;-84
2021/12/10 10:08:20;;;;;;;9.40;6.35;;;3.70;99.90;;;;;;4801959;29;20477;-84
2021/12/10 10:10:50;;;;;;;10.07;6.32;;;3.70;99.90;;;;;;4819074;29;20049;-83
2021/12/10 10:13:18;;;;;;;8.73;5.88;;;3.80;99.90;;;;;;4818612;29;20034;-83
2021/12/10 10:15:47;;;;;;;11.65;6.40;;;3.80;99.90;;;;;;4821183;29;20093;-83
2021/12/10 10:18:16;;;;;;;8.43;5.80;;;3.90;99.90;;;;;;4836842;29;20150;-83
2021/12/10 10:20:46;;;;;;;9.52;5.90;;;3.90;99.90;;;;;;4835758;29;20039;-83
2021/12/10 10:23:13;;;;;;;8.75;6.10;;;3.90;99.90;;;;;;4837429;29;20072;-83
2021/12/10 10:25:40;;;;;;;;;;;4.00;99.90;;;;;;4816929;29;20042;-85
2021/12/10 10:28:10;;;;;;;8.90;6.10;;;4.10;99.90;;;;;;4817729;29;19967;-84
2021/12/10 10:30:59;;;;;;;9.98;6.10;;;4.10;99.90;;;;;;4819633;29;20125;-84
2021/12/10 10:33:26;;;;;;;11.25;6.32;;;4.20;99.90;;;;;;4819663;29;20039;-84
2021/12/10 10:35:57;;;;;;;7.13;5.45;;;4.20;99.90;;;;;;4819945;29;20046;-85
2021/12/10 10:38:25;;;;;;;9.18;5.97;;;4.40;99.90;;;;;;4819441;29;20046;-85
2021/12/10 10:40:58;;;;;;;9.18;5.85;;;4.50;99.90;;;;;;4805566;29;20050;-85
2021/12/10 10:43:25;;;;;;;11.40;5.90;;;4.60;99.90;;;;;;4819243;29;20046;-85
2021/12/10 10:45:51;;;;;;;7.78;5.28;;;4.70;99.90;;;;;;4802938;29;20042;-85
2021/12/10 10:48:18;;;;;;;8.43;5.38;;;4.90;99.90;;;;;;4802444;29;20500;-85
2021/12/10 10:50:53;;;;;;;7.85;5.30;;;5.00;99.90;;;;;;4805139;29;20408;-86
2021/12/10 10:53:21;;;;;;;8.05;5.40;;;5.10;99.90;;;;;;4804556;29;20042;-85
2021/12/10 10:56:05;;;;;;;8.48;5.82;;;5.20;99.90;;;;;;4802546;29;20046;-85
2021/12/10 10:58:42;;;;;;;7.80;5.00;;;5.30;99.90;;;;;;4818601;29;20038;-86
2021/12/10 11:01:24;;;;;;;8.45;5.30;;;5.50;99.90;;;;;;4820250;29;20045;-85
2021/12/10 11:03:59;;;;;;;7.78;5.53;;;5.50;99.90;;;;;;4818311;29;20050;-86
2021/12/10 11:06:43;;;;;;;7.90;4.80;;;5.60;99.90;;;;;;4819706;29;20115;-85
2021/12/10 11:09:16;;;;;;;11.75;4.85;;;5.70;99.90;;;;;;4801226;29;20072;-85
2021/12/10 11:11:47;;;;;;;9.02;5.18;;;5.90;99.90;;;;;;4821044;29;20458;-86
2021/12/10 11:14:16;;;;;;;7.68;4.90;;;6.00;99.90;;;;;;4805238;29;20054;-84
2021/12/10 11:16:46;;;;;;;8.35;4.90;;;6.00;99.90;;;;;;4821508;29;20074;-85
2021/12/10 11:19:22;;;;;;;7.32;4.93;;;6.00;99.90;;;;;;4820836;29;20129;-86
2021/12/10 11:21:50;;;;;;;7.03;4.85;;;6.10;99.90;;;;;;4821609;29;20073;-86
2021/12/10 11:24:25;;;;;;;7.32;4.90;;;6.10;99.90;;;;;;4819286;29;20087;-85
2021/12/10 11:26:56;;;;;;;6.53;4.03;;;6.10;99.90;;;;;;4817693;29;20053;-85
2021/12/10 11:29:55;;;;;;;8.35;4.88;;;6.00;99.90;;;;;;4804649;29;20389;-85
2021/12/10 11:32:39;;;;;;;6.45;4.38;;;6.20;99.90;;;;;;4819001;29;20039;-86
2021/12/10 11:35:27;;;;;;;7.65;4.78;;;6.10;99.90;;;;;;4822446;29;20042;-84
2021/12/10 11:37:56;;;;;;;7.25;4.80;;;6.10;99.90;;;;;;4819115;29;20047;-85
2021/12/10 11:40:30;;;;;;;7.70;4.57;;;6.20;99.90;;;;;;4805446;29;20445;-83
2021/12/10 11:43:01;;;;;;;8.20;4.10;;;6.30;99.90;;;;;;4819749;29;20050;-83
2021/12/10 11:48:44;;;;;;;5.07;3.35;;;6.20;99.90;;;;;;4767749;29;20055;-84
2021/12/10 11:51:27;;;;;;;7.90;4.53;;;6.30;99.90;;;;;;4797339;29;20085;-83
2021/12/10 11:53:59;;;;;;;6.47;3.95;;;6.40;99.90;;;;;;4818626;29;20046;-82
2021/12/10 11:56:51;;;;;;;7.90;3.92;;;6.40;99.90;;;;;;4819865;29;20038;-82
2021/12/10 11:59:24;;;;;;;5.85;3.67;;;6.50;99.90;;;;;;4813917;29;20805;-85
2021/12/10 12:02:26;;;;;;;7.20;3.78;;;6.50;99.90;;;;;;4802495;29;20127;-85
2021/12/10 12:05:02;;;;;;;6.40;3.70;;;6.40;99.90;;;;;;4797174;29;20046;-84
2021/12/10 12:07:32;;;;;;;6.40;3.90;;;6.40;99.90;;;;;;4805431;29;20047;-84
2021/12/10 12:10:12;;;;;;;7.03;3.70;;;6.30;99.90;;;;;;4819979;29;20042;-86
2021/12/10 12:12:47;;;;;;;7.47;3.28;;;6.30;99.90;;;;;;4817127;29;20054;-87
2021/12/10 12:15:28;;;;;;;5.40;3.42;;;6.40;99.90;;;;;;4819689;29;20466;-87
2021/12/10 12:17:58;;;;;;;7.47;3.45;;;6.40;99.90;;;;;;4805622;29;20034;-87
2021/12/10 12:20:35;;;;;;;6.38;3.38;;;6.40;99.90;;;;;;4803911;29;20500;-86
2021/12/10 12:26:25;;;;;;;5.47;3.50;;;6.30;99.90;;;;;;4813238;29;20553;-86
2021/12/10 12:28:59;;;;;;;6.55;3.45;;;6.20;99.90;;;;;;4817701;29;20042;-85
2021/12/10 12:31:31;;;;;;;7.75;3.75;;;6.30;99.90;;;;;;4808291;29;20039;-85
2021/12/10 12:34:02;;;;;;;4.35;2.90;;;6.20;99.90;;;;;;4799963;29;20070;-86
2021/12/10 12:36:50;;;;;;;8.48;3.75;;;6.20;99.90;;;;;;4834862;29;20074;-86
2021/12/10 12:39:40;;;;;;;7.60;3.90;;;6.20;99.90;;;;;;4817371;29;20048;-86
2021/12/10 12:42:18;;;;;;;4.45;3.08;;;6.20;99.90;;;;;;4816539;29;20385;-86
2021/12/10 12:44:46;;;;;;;7.70;3.90;;;6.10;99.90;;;;;;4817412;29;20524;-86
2021/12/10 12:47:16;;;;;;;6.43;3.70;;;6.10;99.90;;;;;;4818116;29;20046;-85
2021/12/10 12:49:48;;;;;;;6.03;3.58;;;6.00;99.90;;;;;;4821598;29;20114;-85
2021/12/10 12:52:19;;;;;;;9.57;3.60;;;6.00;99.90;;;;;;4821837;29;20034;-86
2021/12/10 12:55:04;;;;;;;5.03;3.30;;;5.90;99.90;;;;;;4806358;29;20050;-86
2021/12/10 12:57:41;;;;;;;7.30;3.55;;;5.80;99.90;;;;;;4823102;29;20046;-85
2021/12/10 13:00:27;;;;;;;;;;;5.70;99.90;;;;;;4820245;29;20053;-86
2021/12/10 13:02:57;;;;;;;6.53;3.60;;;5.70;99.90;;;;;;4816946;29;19974;-86
2021/12/10 13:05:41;;;;;;;10.77;3.85;;;5.50;99.90;;;;;;4821228;29;20705;-86
2021/12/10 13:08:18;;;;;;;6.55;3.60;;;5.50;99.90;;;;;;4833482;29;20047;-85
2021/12/10 13:10:52;;;;;;;5.05;3.05;;;5.50;99.90;;;;;;4802022;29;20066;-86